createdAt,value
2022-12-25T00:01:18.351Z,27.70
2022-12-25T00:03:53.549Z,31.00
2022-12-25T00:06:26.025Z,30.70
2022-12-25T00:08:57.831Z,34.50
2022-12-25T00:11:29.960Z,29.60
2022-12-25T00:14:02.014Z,37.60
2022-12-25T00:16:34.119Z,36.60
2022-12-25T00:19:06.059Z,36.30
2022-12-25T00:21:38.004Z,38.40
2022-12-25T00:24:12.021Z,34.60
2022-12-25T00:26:43.842Z,36.00
2022-12-25T00:29:15.976Z,35.00
2022-12-25T00:31:47.908Z,29.30
2022-12-25T00:34:19.763Z,36.10
2022-12-25T00:36:54.283Z,33.70
2022-12-25T00:39:26.110Z,30.10
2022-12-25T00:42:20.757Z,24.80
2022-12-25T00:44:53.062Z,28.80
2022-12-25T00:47:25.209Z,27.10
2022-12-25T00:49:57.575Z,31.00
2022-12-25T00:52:30.067Z,28.40
2022-12-25T00:55:01.877Z,25.40
2022-12-25T00:57:34.622Z,26.40
2022-12-25T01:00:15.660Z,26.40
2022-12-25T01:02:47.677Z,24.00
2022-12-25T01:05:19.873Z,24.70
2022-12-25T01:07:52.110Z,24.40
2022-12-25T01:10:29.501Z,25.00
2022-12-25T01:13:01.448Z,29.30
2022-12-25T01:15:33.258Z,26.80
2022-12-25T01:18:07.970Z,24.90
2022-12-25T01:20:40.528Z,25.20
2022-12-25T01:23:12.378Z,24.70
2022-12-25T01:25:44.327Z,24.90
2022-12-25T01:28:16.861Z,24.90
2022-12-25T01:30:51.900Z,23.50
2022-12-25T01:33:23.780Z,27.20
2022-12-25T01:35:55.579Z,23.90
2022-12-25T01:38:27.619Z,20.90
2022-12-25T01:40:59.422Z,22.60
2022-12-25T01:43:34.024Z,22.80
2022-12-25T01:46:05.937Z,21.10
2022-12-25T01:48:40.657Z,23.90
2022-12-25T01:51:23.094Z,23.00
2022-12-25T01:53:57.404Z,22.90
2022-12-25T01:56:30.308Z,21.30
2022-12-25T01:59:03.571Z,22.20
2022-12-25T02:01:35.562Z,21.30
2022-12-25T02:04:15.032Z,19.70
2022-12-25T02:06:47.812Z,23.20
2022-12-25T02:09:19.934Z,20.40
2022-12-25T02:11:57.658Z,18.60
2022-12-25T02:14:32.202Z,20.60
2022-12-25T02:17:12.079Z,23.00
2022-12-25T02:20:29.063Z,20.90
2022-12-25T02:23:14.551Z,22.90
2022-12-25T02:25:59.313Z,22.50
2022-12-25T02:28:43.216Z,20.80
2022-12-25T02:31:23.561Z,24.70
2022-12-25T02:34:06.403Z,21.80
2022-12-25T02:36:44.322Z,21.40
2022-12-25T02:39:41.297Z,24.60
2022-12-25T02:42:22.390Z,25.10
2022-12-25T02:45:12.248Z,19.80
2022-12-25T02:48:02.095Z,23.80
2022-12-25T02:50:51.453Z,24.20
2022-12-25T02:53:41.484Z,21.20
2022-12-25T02:56:31.859Z,19.40
2022-12-25T02:59:21.987Z,20.30
2022-12-25T03:02:12.518Z,22.50
2022-12-25T03:05:03.282Z,20.90
2022-12-25T03:07:38.125Z,24.60
2022-12-25T03:10:36.110Z,22.20
2022-12-25T03:13:13.903Z,22.10
2022-12-25T03:16:03.848Z,19.20
2022-12-25T03:18:36.382Z,20.40
2022-12-25T03:21:27.958Z,20.40
2022-12-25T03:24:20.544Z,17.90
2022-12-25T03:26:58.445Z,21.40
2022-12-25T03:30:06.020Z,19.40
2022-12-25T03:32:44.118Z,21.40
2022-12-25T03:35:24.113Z,23.50
2022-12-25T03:38:28.270Z,22.80
2022-12-25T03:41:19.403Z,19.60
2022-12-25T03:44:14.871Z,20.80
2022-12-25T03:47:13.189Z,19.10
2022-12-25T03:50:13.411Z,21.30
2022-12-25T03:53:05.529Z,19.50
2022-12-25T03:55:55.255Z,20.70
2022-12-25T03:58:46.268Z,24.70
2022-12-25T04:01:36.002Z,18.70
2022-12-25T04:04:25.566Z,20.90
2022-12-25T04:07:14.954Z,20.50
2022-12-25T04:10:04.423Z,21.10
2022-12-25T04:12:52.950Z,20.40
2022-12-25T04:15:47.917Z,24.70
2022-12-25T04:18:37.662Z,20.30
2022-12-25T04:21:27.491Z,18.50
2022-12-25T04:24:17.158Z,20.10
2022-12-25T04:27:06.968Z,22.80
2022-12-25T04:30:04.839Z,21.60
2022-12-25T04:32:54.838Z,22.50
2022-12-25T04:35:44.227Z,24.80
2022-12-25T04:38:16.117Z,20.20
2022-12-25T04:40:47.978Z,16.10
2022-12-25T04:43:19.795Z,20.40
2022-12-25T04:45:56.520Z,24.50
2022-12-25T04:48:29.307Z,21.50
2022-12-25T04:51:10.250Z,19.90
2022-12-25T04:53:42.122Z,15.80
2022-12-25T04:56:14.322Z,19.60
2022-12-25T04:58:46.742Z,18.90
2022-12-25T05:01:19.292Z,20.90
2022-12-25T05:03:51.331Z,19.10
2022-12-25T05:06:23.559Z,17.20
2022-12-25T05:08:55.388Z,18.30
2022-12-25T05:11:27.713Z,20.60
2022-12-25T05:13:59.753Z,19.50
2022-12-25T05:16:31.842Z,19.00
2022-12-25T05:19:03.854Z,18.50
2022-12-25T05:21:35.724Z,23.30
2022-12-25T05:24:09.310Z,20.30
2022-12-25T05:26:41.203Z,20.20
2022-12-25T05:29:13.029Z,18.80
2022-12-25T05:31:44.995Z,21.00
2022-12-25T05:34:16.993Z,22.00
2022-12-25T05:36:48.815Z,22.30
2022-12-25T05:39:20.976Z,24.40
2022-12-25T05:41:52.852Z,22.40
2022-12-25T05:44:24.947Z,21.40
2022-12-25T05:46:56.791Z,22.80
2022-12-25T05:49:28.653Z,23.10
2022-12-25T05:52:00.466Z,19.00
2022-12-25T05:54:32.237Z,20.80
2022-12-25T05:57:04.199Z,23.00
2022-12-25T05:59:36.274Z,23.20
2022-12-25T06:02:08.182Z,23.30
2022-12-25T06:04:40.128Z,18.20
2022-12-25T06:07:12.431Z,19.60
2022-12-25T06:09:44.468Z,22.10
2022-12-25T06:12:16.297Z,20.40
2022-12-25T06:14:48.020Z,27.20
2022-12-25T06:17:19.880Z,20.20
2022-12-25T06:19:51.724Z,20.00
2022-12-25T06:22:23.688Z,23.90
2022-12-25T06:24:55.537Z,21.60
2022-12-25T06:27:28.525Z,18.30
2022-12-25T06:30:00.672Z,28.30
2022-12-25T06:32:32.557Z,20.60
2022-12-25T06:35:04.425Z,21.50
2022-12-25T06:37:36.247Z,22.40
2022-12-25T06:40:14.595Z,21.30
2022-12-25T06:42:46.664Z,26.00
2022-12-25T06:45:18.717Z,22.50
2022-12-25T06:47:50.617Z,22.90
2022-12-25T06:50:27.345Z,23.10
2022-12-25T06:53:00.178Z,23.40
2022-12-25T06:55:32.572Z,22.00
2022-12-25T06:58:04.399Z,25.70
2022-12-25T07:00:36.178Z,24.60
2022-12-25T07:03:08.396Z,24.10
2022-12-25T07:05:40.239Z,26.50
2022-12-25T07:08:12.199Z,25.10
2022-12-25T07:10:44.029Z,21.10
2022-12-25T07:13:15.925Z,27.30
2022-12-25T07:15:47.675Z,23.90
2022-12-25T07:18:19.517Z,29.00
2022-12-25T07:20:51.331Z,24.00
2022-12-25T07:23:23.221Z,22.10
2022-12-25T07:25:59.253Z,26.00
2022-12-25T07:28:31.368Z,22.90
2022-12-25T07:31:08.833Z,30.00
2022-12-25T07:33:41.154Z,24.70
2022-12-25T07:36:13.818Z,23.70
2022-12-25T07:38:49.533Z,28.60
2022-12-25T07:41:21.385Z,26.30
2022-12-25T07:43:54.290Z,25.70
2022-12-25T07:46:26.946Z,26.30
2022-12-25T07:48:58.875Z,27.90
2022-12-25T07:51:31.226Z,24.50
2022-12-25T07:54:03.333Z,23.10
2022-12-25T07:56:35.201Z,24.40
2022-12-25T07:59:07.014Z,28.30
2022-12-25T08:01:38.929Z,31.90
2022-12-25T08:04:12.813Z,21.90
2022-12-25T08:06:44.596Z,25.80
2022-12-25T08:09:16.558Z,28.00
2022-12-25T08:11:49.243Z,27.40
2022-12-25T08:14:21.020Z,34.40
2022-12-25T08:16:53.061Z,26.30
2022-12-25T08:19:25.047Z,23.80
2022-12-25T08:21:56.825Z,27.80
2022-12-25T08:24:28.755Z,27.40
2022-12-25T08:27:00.570Z,27.70
2022-12-25T08:29:33.607Z,23.20
2022-12-25T08:32:05.692Z,31.60
2022-12-25T08:34:38.515Z,28.20
2022-12-25T08:37:10.267Z,26.70
2022-12-25T08:39:42.241Z,22.50
2022-12-25T08:42:15.349Z,25.30
2022-12-25T08:44:47.188Z,25.80
2022-12-25T08:47:19.043Z,19.80
2022-12-25T08:49:50.931Z,22.40
2022-12-25T08:52:23.034Z,19.40
2022-12-25T08:54:54.991Z,23.00
2022-12-25T08:57:26.808Z,22.30
2022-12-25T08:59:58.634Z,33.10
2022-12-25T09:02:30.671Z,25.10
2022-12-25T09:05:02.745Z,22.80
2022-12-25T09:07:34.483Z,24.20
2022-12-25T09:10:16.460Z,26.40
2022-12-25T09:12:48.332Z,27.80
2022-12-25T09:15:20.433Z,21.70
2022-12-25T09:17:52.326Z,29.00
2022-12-25T09:20:33.481Z,27.60
2022-12-25T09:25:43.628Z,23.30
2022-12-25T09:28:15.533Z,22.40
2022-12-25T09:30:47.535Z,26.80
2022-12-25T09:33:19.331Z,22.30
2022-12-25T09:35:58.486Z,23.30
2022-12-25T09:38:30.596Z,24.30
2022-12-25T09:41:06.561Z,25.60
2022-12-25T09:43:43.476Z,22.30
2022-12-25T09:46:20.400Z,23.40
2022-12-25T09:48:58.457Z,24.50
2022-12-25T09:51:31.398Z,32.50
2022-12-25T09:54:08.279Z,26.20
2022-12-25T09:56:40.397Z,44.00
2022-12-25T09:59:22.546Z,34.50
2022-12-25T10:02:05.441Z,27.90
2022-12-25T10:04:57.136Z,21.90
2022-12-25T10:07:37.792Z,23.20
2022-12-25T10:10:29.538Z,30.90
2022-12-25T10:13:12.613Z,27.30
2022-12-25T10:15:52.952Z,23.50
2022-12-25T10:18:41.597Z,35.90
2022-12-25T10:21:18.264Z,28.10
2022-12-25T10:23:54.301Z,30.50
2022-12-25T10:26:26.835Z,28.10
2022-12-25T10:29:04.009Z,30.00
2022-12-25T10:31:38.581Z,46.10
2022-12-25T10:34:13.369Z,31.10
2022-12-25T10:36:46.983Z,36.80
2022-12-25T10:39:21.094Z,31.10
2022-12-25T10:42:12.315Z,34.30
2022-12-25T10:47:24.258Z,22.40
2022-12-25T10:49:58.009Z,26.80
2022-12-25T10:52:30.816Z,36.00
2022-12-25T10:55:14.089Z,28.80
2022-12-25T10:57:48.927Z,36.90
2022-12-25T11:00:26.033Z,22.40
2022-12-25T11:02:58.568Z,26.30
2022-12-25T11:05:33.256Z,25.60
2022-12-25T11:08:19.359Z,26.30
2022-12-25T11:10:58.144Z,33.50
2022-12-25T11:13:31.460Z,31.10
2022-12-25T11:16:10.807Z,24.00
2022-12-25T11:18:49.933Z,28.40
2022-12-25T11:21:25.088Z,26.70
2022-12-25T11:24:02.168Z,31.40
2022-12-25T11:26:47.071Z,40.10
2022-12-25T11:29:26.190Z,32.10
2022-12-25T11:32:01.670Z,26.40
2022-12-25T11:34:38.555Z,27.20
2022-12-25T11:37:16.993Z,25.60
2022-12-25T11:39:49.041Z,27.20
2022-12-25T11:42:26.442Z,29.80
2022-12-25T11:45:03.733Z,33.20
2022-12-25T11:47:42.335Z,39.40
2022-12-25T11:50:33.220Z,31.50
2022-12-25T11:53:08.052Z,36.90
2022-12-25T11:55:43.826Z,37.60
2022-12-25T11:58:26.780Z,33.90
2022-12-25T12:01:00.321Z,35.00
2022-12-25T12:03:36.503Z,31.30
2022-12-25T12:06:16.019Z,32.30
2022-12-25T12:08:53.269Z,31.50
2022-12-25T12:11:33.599Z,32.50
2022-12-25T12:14:18.857Z,34.90
2022-12-25T12:16:50.742Z,41.50
2022-12-25T12:19:30.960Z,39.60
2022-12-25T12:22:05.078Z,41.30
2022-12-25T12:24:40.218Z,34.90
2022-12-25T12:27:28.989Z,33.30
2022-12-25T12:30:02.958Z,31.40
2022-12-25T12:32:42.577Z,31.00
2022-12-25T12:35:22.343Z,27.60
2022-12-25T12:37:57.479Z,31.30
2022-12-25T12:40:40.897Z,35.40
2022-12-25T12:43:29.707Z,34.80
2022-12-25T12:46:06.883Z,35.10
2022-12-25T12:48:44.553Z,32.70
2022-12-25T12:51:29.109Z,35.20
2022-12-25T12:54:21.595Z,36.80
2022-12-25T12:57:01.596Z,41.70
2022-12-25T12:59:43.591Z,38.10
2022-12-25T13:02:41.473Z,31.20
2022-12-25T13:05:21.647Z,32.10
2022-12-25T13:08:01.285Z,33.80
2022-12-25T13:10:35.852Z,35.30
2022-12-25T13:13:15.288Z,40.70
2022-12-25T13:15:50.983Z,41.90
2022-12-25T13:18:23.713Z,40.20
2022-12-25T13:20:59.422Z,39.90
2022-12-25T13:23:33.559Z,38.00
2022-12-25T13:26:06.800Z,40.00
2022-12-25T13:28:39.443Z,32.10
2022-12-25T13:31:18.394Z,36.90
2022-12-25T13:33:56.494Z,36.20
2022-12-25T13:36:30.705Z,35.00
2022-12-25T13:39:02.808Z,35.50
2022-12-25T13:41:59.682Z,32.60
2022-12-25T13:44:37.982Z,31.70
2022-12-25T13:47:19.765Z,30.50
2022-12-25T13:49:52.864Z,29.50
2022-12-25T13:52:28.885Z,32.00
2022-12-25T13:55:02.793Z,31.70
2022-12-25T13:57:38.268Z,37.00
2022-12-25T14:00:39.021Z,32.40
2022-12-25T14:03:20.186Z,37.20
2022-12-25T14:08:32.279Z,36.20
2022-12-25T14:11:07.065Z,39.40
2022-12-25T14:13:42.667Z,38.50
2022-12-25T14:16:16.846Z,32.90
2022-12-25T14:18:55.758Z,44.00
2022-12-25T14:21:32.596Z,43.00
2022-12-25T14:24:04.723Z,40.80
2022-12-25T14:26:36.609Z,46.00
2022-12-25T14:29:18.116Z,50.00
2022-12-25T14:31:51.074Z,43.60
2022-12-25T14:34:25.523Z,34.90
2022-12-25T14:36:57.959Z,33.90
2022-12-25T14:39:37.357Z,35.40
2022-12-25T14:42:20.349Z,33.80
2022-12-25T14:45:01.346Z,32.80
2022-12-25T14:47:35.263Z,36.90
2022-12-25T14:50:29.482Z,32.30
2022-12-25T14:53:02.127Z,34.50
2022-12-25T14:55:34.093Z,35.80
2022-12-25T14:58:08.905Z,36.40
2022-12-25T15:00:43.333Z,44.50
2022-12-25T15:03:25.051Z,44.30
2022-12-25T15:06:05.276Z,47.60
2022-12-25T15:08:38.664Z,48.90
2022-12-25T15:11:11.604Z,46.80
2022-12-25T15:13:43.474Z,50.40
2022-12-25T15:16:22.447Z,47.20
2022-12-25T15:18:55.721Z,52.90
2022-12-25T15:21:29.681Z,52.90
2022-12-25T15:24:02.532Z,44.80
2022-12-25T15:26:34.883Z,49.10
2022-12-25T15:29:07.618Z,50.00
2022-12-25T15:31:40.700Z,49.20
2022-12-25T15:34:21.055Z,55.00
2022-12-25T15:36:53.096Z,53.60
2022-12-25T15:39:24.912Z,53.30
2022-12-25T15:42:11.855Z,50.40
2022-12-25T15:44:45.473Z,57.10
2022-12-25T15:47:20.155Z,55.60
2022-12-25T15:49:52.231Z,56.90
2022-12-25T15:52:24.042Z,51.10
2022-12-25T15:54:55.912Z,53.00
2022-12-25T15:57:27.883Z,46.70
2022-12-25T15:59:59.835Z,52.00
2022-12-25T16:02:31.878Z,51.30
2022-12-25T16:05:10.099Z,50.30
2022-12-25T16:07:42.655Z,51.10
2022-12-25T16:10:29.195Z,40.40
2022-12-25T16:13:04.002Z,43.50
2022-12-25T16:15:35.957Z,44.70
2022-12-25T16:18:08.309Z,53.80
2022-12-25T16:20:40.171Z,57.20
2022-12-25T16:23:11.957Z,56.20
2022-12-25T16:25:43.835Z,59.40
2022-12-25T16:28:15.867Z,63.30
2022-12-25T16:30:47.872Z,62.90
2022-12-25T16:33:20.077Z,55.80
2022-12-25T16:35:52.710Z,55.50
2022-12-25T16:38:24.877Z,62.80
2022-12-25T16:40:59.883Z,66.70
2022-12-25T16:43:31.958Z,68.20
2022-12-25T16:46:10.175Z,65.30
2022-12-25T16:48:42.521Z,63.00
2022-12-25T16:51:16.214Z,57.10
2022-12-25T16:53:48.463Z,55.70
2022-12-25T16:56:25.382Z,63.20
2022-12-25T16:58:58.428Z,59.10
2022-12-25T17:01:30.559Z,67.40
2022-12-25T17:04:02.849Z,62.60
2022-12-25T17:06:34.830Z,62.60
2022-12-25T17:09:07.879Z,62.80
2022-12-25T17:11:39.710Z,64.80
2022-12-25T17:14:12.554Z,67.60
2022-12-25T17:16:44.609Z,63.70
2022-12-25T17:19:20.290Z,62.10
2022-12-25T17:21:54.800Z,66.20
2022-12-25T17:24:26.633Z,64.50
2022-12-25T17:26:58.457Z,63.10
2022-12-25T17:29:31.968Z,64.20
2022-12-25T17:32:03.863Z,66.30
2022-12-25T17:34:35.844Z,64.00
2022-12-25T17:37:08.175Z,64.10
2022-12-25T17:39:40.249Z,66.30
2022-12-25T17:42:12.144Z,67.70
2022-12-25T17:44:43.922Z,66.50
2022-12-25T17:47:15.932Z,66.80
2022-12-25T17:49:47.744Z,66.80
2022-12-25T17:52:19.595Z,69.50
2022-12-25T17:54:51.414Z,67.20
2022-12-25T17:57:23.216Z,64.10
2022-12-25T17:59:55.197Z,72.40
2022-12-25T18:02:27.215Z,70.60
2022-12-25T18:04:59.460Z,61.70
2022-12-25T18:07:31.358Z,72.00
2022-12-25T18:10:03.169Z,67.30
2022-12-25T18:12:46.301Z,67.40
2022-12-25T18:15:18.128Z,72.00
2022-12-25T18:17:49.959Z,66.60
2022-12-25T18:20:35.891Z,65.00
2022-12-25T18:23:11.575Z,60.10
2022-12-25T18:25:49.476Z,65.00
2022-12-25T18:28:21.499Z,67.00
2022-12-25T18:30:53.288Z,67.80
2022-12-25T18:33:25.285Z,68.80
2022-12-25T18:36:01.623Z,75.20
2022-12-25T18:38:33.606Z,84.30
2022-12-25T18:41:07.677Z,81.20
2022-12-25T18:43:54.195Z,84.90
2022-12-25T18:46:28.978Z,76.30
2022-12-25T18:49:00.887Z,70.10
2022-12-25T18:51:36.911Z,60.50
2022-12-25T18:54:09.202Z,71.60
2022-12-25T18:56:40.957Z,69.40
2022-12-25T18:59:13.140Z,66.10
2022-12-25T19:01:45.070Z,65.70
2022-12-25T19:04:17.241Z,58.20
2022-12-25T19:06:52.287Z,64.80
2022-12-25T19:09:27.050Z,58.90
2022-12-25T19:11:58.991Z,54.20
2022-12-25T19:14:31.158Z,59.70
2022-12-25T19:17:19.865Z,55.80
2022-12-25T19:19:52.613Z,59.10
2022-12-25T19:22:24.461Z,58.20
2022-12-25T19:24:56.323Z,58.00
2022-12-25T19:27:28.235Z,52.20
2022-12-25T19:30:00.237Z,51.80
2022-12-25T19:32:32.249Z,54.10
2022-12-25T19:35:04.933Z,45.50
2022-12-25T19:37:36.827Z,47.10
2022-12-25T19:40:38.854Z,53.60
2022-12-25T19:43:10.826Z,51.60
2022-12-25T19:45:42.746Z,50.70
2022-12-25T19:48:14.910Z,62.60
2022-12-25T19:50:46.768Z,55.30
2022-12-25T19:53:18.997Z,47.00
2022-12-25T19:55:50.827Z,57.10
2022-12-25T19:58:23.541Z,47.50
2022-12-25T20:01:02.856Z,49.40
2022-12-25T20:03:38.812Z,52.10
2022-12-25T20:06:18.990Z,45.80
2022-12-25T20:08:53.463Z,49.00
2022-12-25T20:11:28.331Z,50.40
2022-12-25T20:14:02.960Z,46.80
2022-12-25T20:16:37.087Z,49.20
2022-12-25T20:19:11.309Z,50.30
2022-12-25T20:21:43.205Z,50.50
2022-12-25T20:24:15.092Z,46.30
2022-12-25T20:26:48.049Z,51.00
2022-12-25T20:29:21.412Z,51.10
2022-12-25T20:31:53.419Z,48.40
2022-12-25T20:34:25.414Z,46.90
2022-12-25T20:36:57.347Z,42.60
2022-12-25T20:39:29.166Z,48.10
2022-12-25T20:42:01.034Z,45.80
2022-12-25T20:44:34.992Z,48.60
2022-12-25T20:47:06.952Z,47.60
2022-12-25T20:49:38.758Z,48.40
2022-12-25T20:52:10.658Z,46.40
2022-12-25T20:54:42.494Z,44.20
2022-12-25T20:57:14.355Z,41.80
2022-12-25T20:59:46.417Z,40.60
2022-12-25T21:02:34.856Z,43.80
2022-12-25T21:05:12.649Z,41.20
2022-12-25T21:07:44.506Z,40.80
2022-12-25T21:10:17.605Z,39.90
2022-12-25T21:12:56.689Z,38.00
2022-12-25T21:15:28.477Z,39.70
2022-12-25T21:18:00.290Z,41.40
2022-12-25T21:20:32.238Z,45.30
2022-12-25T21:23:04.048Z,39.50
2022-12-25T21:25:35.817Z,38.50
2022-12-25T21:28:07.750Z,41.90
2022-12-25T21:30:39.691Z,42.80
2022-12-25T21:33:30.588Z,42.30
2022-12-25T21:36:09.719Z,45.20
2022-12-25T21:38:41.679Z,39.10
2022-12-25T21:41:15.370Z,38.40
2022-12-25T21:43:47.257Z,39.60
2022-12-25T21:46:19.432Z,37.90
2022-12-25T21:48:51.567Z,38.70
2022-12-25T21:51:43.267Z,40.00
2022-12-25T21:54:15.910Z,41.50
2022-12-25T21:56:49.444Z,38.30
2022-12-25T21:59:22.958Z,35.60
2022-12-25T22:01:55.374Z,38.70
2022-12-25T22:04:27.365Z,40.90
2022-12-25T22:07:16.887Z,42.60
2022-12-25T22:09:50.032Z,41.90
2022-12-25T22:12:40.367Z,42.70
2022-12-25T22:15:13.023Z,39.60
2022-12-25T22:18:03.120Z,40.70
2022-12-25T22:20:39.614Z,38.60
2022-12-25T22:23:11.439Z,36.80
2022-12-25T22:25:43.330Z,41.10
2022-12-25T22:28:15.154Z,36.10
2022-12-25T22:30:47.043Z,41.00
2022-12-25T22:33:20.529Z,38.10
2022-12-25T22:35:52.379Z,39.00
2022-12-25T22:38:24.249Z,34.60
2022-12-25T22:40:56.097Z,37.20
2022-12-25T22:43:50.890Z,37.90
2022-12-25T22:46:21.980Z,35.30
2022-12-25T22:48:54.072Z,36.00
2022-12-25T22:51:25.984Z,35.00
2022-12-25T22:54:03.364Z,36.90
2022-12-25T22:56:35.727Z,34.40
2022-12-25T22:59:07.580Z,35.50
2022-12-25T23:01:39.708Z,31.40
2022-12-25T23:04:13.834Z,37.60
2022-12-25T23:06:46.573Z,36.90
2022-12-25T23:09:24.834Z,35.90
2022-12-25T23:11:58.037Z,37.30
2022-12-25T23:14:42.121Z,33.00
2022-12-25T23:17:29.349Z,35.50
2022-12-25T23:20:19.608Z,30.20
2022-12-25T23:23:20.365Z,38.10
2022-12-25T23:26:12.030Z,30.10
2022-12-25T23:29:02.770Z,31.30
2022-12-25T23:31:37.582Z,30.80
2022-12-25T23:34:10.277Z,27.80
2022-12-25T23:36:42.110Z,26.30
2022-12-25T23:39:14.364Z,31.80
2022-12-25T23:41:46.536Z,30.30
2022-12-25T23:44:18.380Z,31.30
2022-12-25T23:46:52.819Z,31.30
2022-12-25T23:49:26.527Z,26.50
2022-12-25T23:51:58.850Z,32.30
2022-12-25T23:54:32.573Z,34.10
2022-12-25T23:57:05.726Z,30.40
2022-12-25T23:59:37.526Z,28.20
